Time;durP1;ratioP1;P1;durP2;ratioP2;P2;SDS_P1;SDS_P2;PMS_P1;PMS_P2;Temp;Humidity;BMP_temperature;BMP_pressure;BME280_temperature;BME280_humidity;BME280_pressure;Samples;Min_cycle;Max_cycle;Signal;HPM_P1;HPM_P2
2023/04/06 00:01:49;;;;;;;13.63;6.97;;;4.50;98.80;;;;;;4915982;29;20458;-55
2023/04/06 00:04:16;;;;;;;11.95;7.60;;;4.50;98.80;;;;;;4904914;29;20043;-53
2023/04/06 00:06:42;;;;;;;12.15;7.80;;;4.50;99.10;;;;;;4915345;29;20050;-52
2023/04/06 00:09:08;;;;;;;11.32;6.82;;;4.50;99.00;;;;;;4909951;29;20816;-51
2023/04/06 00:11:34;;;;;;;11.70;7.30;;;4.40;99.00;;;;;;4914747;29;20052;-52
2023/04/06 00:14:00;;;;;;;11.68;7.38;;;4.40;99.20;;;;;;4915767;29;20459;-55
2023/04/06 00:16:25;;;;;;;12.30;7.35;;;4.40;99.20;;;;;;4918023;29;20487;-54
2023/04/06 00:18:51;;;;;;;10.50;7.18;;;4.40;99.20;;;;;;4916875;29;20046;-55
2023/04/06 00:21:17;;;;;;;12.52;7.32;;;4.40;99.20;;;;;;4919693;29;20051;-56
2023/04/06 00:23:43;;;;;;;10.80;7.07;;;4.40;99.30;;;;;;4917499;29;20151;-55
2023/04/06 00:26:10;;;;;;;8.80;6.53;;;4.40;99.30;;;;;;4915437;29;20126;-53
2023/04/06 00:28:37;;;;;;;11.27;7.57;;;4.40;99.30;;;;;;4917627;29;20454;-54
2023/04/06 00:31:03;;;;;;;10.02;7.28;;;4.40;99.30;;;;;;4916445;29;20035;-53
2023/04/06 00:33:28;;;;;;;10.52;7.63;;;4.30;99.30;;;;;;4919310;29;20055;-52
2023/04/06 00:35:54;;;;;;;10.88;7.13;;;4.30;99.30;;;;;;4920909;29;20817;-52
2023/04/06 00:38:21;;;;;;;9.68;7.18;;;4.30;99.30;;;;;;4911528;29;20067;-55
2023/04/06 00:40:47;;;;;;;8.88;6.95;;;4.30;99.30;;;;;;4899597;29;20043;-52
2023/04/06 00:43:13;;;;;;;11.68;7.20;;;4.30;99.30;;;;;;4919659;29;20063;-53
2023/04/06 00:45:40;;;;;;;10.00;7.10;;;4.30;99.20;;;;;;4917169;29;20099;-52
2023/04/06 00:48:07;;;;;;;13.98;7.40;;;4.30;99.20;;;;;;4920376;29;20092;-55
2023/04/06 00:50:34;;;;;;;12.63;6.93;;;4.30;99.20;;;;;;4915176;29;20035;-53
2023/04/06 00:53:00;;;;;;;10.57;7.22;;;4.20;99.20;;;;;;4917600;29;20040;-55
2023/04/06 00:55:29;;;;;;;11.23;6.63;;;4.20;99.30;;;;;;4915114;29;20048;-54
2023/04/06 00:57:58;;;;;;;11.77;7.10;;;4.20;99.20;;;;;;4916696;29;20526;-56
2023/04/06 01:00:25;;;;;;;10.20;7.00;;;4.20;99.20;;;;;;4918463;29;20040;-55
2023/04/06 01:02:52;;;;;;;11.50;7.35;;;4.20;99.30;;;;;;4917894;29;20124;-55
2023/04/06 01:05:18;;;;;;;10.00;7.35;;;4.20;99.30;;;;;;4914304;29;20055;-56
2023/04/06 01:07:43;;;;;;;10.30;6.80;;;4.20;99.40;;;;;;4916112;29;20044;-52
2023/04/06 01:10:09;;;;;;;11.05;7.05;;;4.10;99.40;;;;;;4912155;29;20497;-55
2023/04/06 01:12:37;;;;;;;11.55;7.22;;;4.10;99.40;;;;;;4920870;29;20498;-51
2023/04/06 01:15:04;;;;;;;13.23;7.07;;;4.10;99.40;;;;;;4921033;29;20111;-54
2023/04/06 01:17:29;;;;;;;12.52;7.63;;;4.10;99.40;;;;;;4914680;29;20051;-56
2023/04/06 01:19:55;;;;;;;14.43;7.10;;;4.10;99.50;;;;;;4918331;29;20066;-54
2023/04/06 01:22:21;;;;;;;10.75;7.35;;;4.00;99.50;;;;;;4913153;29;20048;-53
2023/04/06 01:24:47;;;;;;;13.73;7.28;;;4.00;99.50;;;;;;4917011;29;20058;-51
2023/04/06 01:27:13;;;;;;;11.05;7.18;;;4.00;99.50;;;;;;4913854;29;20051;-51
2023/04/06 01:29:42;;;;;;;12.13;7.00;;;4.00;99.60;;;;;;4913909;29;20036;-55
2023/04/06 01:32:09;;;;;;;10.15;7.00;;;3.90;99.50;;;;;;4913760;29;20044;-53
2023/04/06 01:34:35;;;;;;;11.38;7.35;;;3.90;99.60;;;;;;4900236;29;20035;-55
2023/04/06 01:37:01;;;;;;;11.57;7.30;;;3.90;99.60;;;;;;4912496;29;20051;-54
2023/04/06 01:39:26;;;;;;;12.27;7.10;;;3.90;99.50;;;;;;4919247;29;20062;-56
2023/04/06 01:41:52;;;;;;;12.15;7.47;;;3.90;99.60;;;;;;4912470;29;20054;-52
2023/04/06 01:44:18;;;;;;;12.63;6.78;;;3.90;99.60;;;;;;4917035;29;20111;-53
2023/04/06 01:46:45;;;;;;;11.90;7.22;;;3.80;99.60;;;;;;4915834;29;20055;-53
2023/04/06 01:49:12;;;;;;;9.80;7.10;;;3.80;99.90;;;;;;4918297;29;20040;-56
2023/04/06 01:51:37;;;;;;;12.75;7.70;;;3.80;99.60;;;;;;4914862;29;20048;-55
2023/04/06 01:54:03;;;;;;;12.55;7.03;;;3.80;99.50;;;;;;4901307;29;20059;-51
2023/04/06 01:56:29;;;;;;;14.45;7.57;;;3.80;99.60;;;;;;4914864;29;20407;-55
2023/04/06 01:58:55;;;;;;;12.52;6.95;;;3.80;99.60;;;;;;4914713;29;20056;-55
2023/04/06 02:01:21;;;;;;;9.82;7.40;;;3.80;99.80;;;;;;4916928;29;20683;-55
2023/04/06 02:03:47;;;;;;;9.88;7.55;;;3.70;99.60;;;;;;4916361;29;21066;-55
2023/04/06 02:06:12;;;;;;;11.23;7.80;;;3.70;99.60;;;;;;4914511;29;20036;-52
2023/04/06 02:08:38;;;;;;;12.35;7.82;;;3.70;99.70;;;;;;4916437;29;20099;-56
2023/04/06 02:11:04;;;;;;;10.63;7.00;;;3.70;99.70;;;;;;4912250;29;20095;-53
2023/04/06 02:13:30;;;;;;;11.25;7.25;;;3.60;99.70;;;;;;4915127;29;20591;-56
2023/04/06 02:15:56;;;;;;;10.45;7.28;;;3.60;99.80;;;;;;4915157;29;20075;-54
2023/04/06 02:18:22;;;;;;;10.75;7.53;;;3.60;99.80;;;;;;4917902;29;20048;-56
2023/04/06 02:20:48;;;;;;;9.40;7.25;;;3.60;99.80;;;;;;4915008;29;20055;-54
2023/04/06 02:23:14;;;;;;;10.65;7.15;;;3.50;99.70;;;;;;4918545;29;20044;-53
2023/04/06 02:25:40;;;;;;;11.57;8.02;;;3.50;99.70;;;;;;4916691;29;20543;-54
2023/04/06 02:28:06;;;;;;;12.43;8.00;;;3.50;99.80;;;;;;4918038;29;20052;-53
2023/04/06 02:30:32;;;;;;;13.20;7.50;;;3.50;99.80;;;;;;4920368;29;20051;-55
2023/04/06 02:33:00;;;;;;;11.35;7.68;;;3.50;99.80;;;;;;4917827;29;20438;-53
2023/04/06 02:35:28;;;;;;;10.55;7.72;;;3.50;99.80;;;;;;4913187;29;20483;-51
2023/04/06 02:37:54;;;;;;;12.43;7.60;;;3.50;99.80;;;;;;4911485;29;20106;-54
2023/04/06 02:40:20;;;;;;;12.75;7.97;;;3.50;99.70;;;;;;4917766;29;20511;-56
2023/04/06 02:42:46;;;;;;;12.63;8.05;;;3.40;99.70;;;;;;4919447;29;20123;-56
2023/04/06 02:45:12;;;;;;;11.23;8.07;;;3.50;99.70;;;;;;4905174;29;20062;-53
2023/04/06 02:47:37;;;;;;;12.00;8.70;;;3.50;99.70;;;;;;4919301;29;20042;-56
2023/04/06 02:50:04;;;;;;;12.40;8.23;;;3.50;99.70;;;;;;4897735;29;20086;-56
2023/04/06 02:52:30;;;;;;;12.88;8.35;;;3.40;99.80;;;;;;4918840;29;20052;-55
2023/04/06 02:54:55;;;;;;;13.55;8.23;;;3.40;99.80;;;;;;4920452;29;21468;-54
2023/04/06 02:57:21;;;;;;;10.93;7.75;;;3.40;99.80;;;;;;4918449;29;20557;-53
2023/04/06 02:59:47;;;;;;;12.65;8.27;;;3.40;99.70;;;;;;4918417;29;20402;-55
2023/04/06 03:02:12;;;;;;;12.27;8.35;;;3.40;99.70;;;;;;4918316;29;20161;-53
2023/04/06 03:04:38;;;;;;;12.60;8.00;;;3.40;99.70;;;;;;4916774;29;20067;-52
2023/04/06 03:07:04;;;;;;;14.77;8.35;;;3.30;99.70;;;;;;4918683;29;20142;-54
2023/04/06 03:09:30;;;;;;;14.23;8.52;;;3.30;99.80;;;;;;4903829;29;20042;-56
2023/04/06 03:11:55;;;;;;;11.63;8.48;;;3.30;99.80;;;;;;4918171;29;20075;-55
2023/04/06 03:14:22;;;;;;;11.85;7.75;;;3.30;99.80;;;;;;4915472;29;20088;-56
2023/04/06 03:16:50;;;;;;;12.77;7.80;;;3.30;99.90;;;;;;4917007;29;20067;-56
2023/04/06 03:19:16;;;;;;;9.95;7.45;;;3.20;99.90;;;;;;4917729;29;20055;-54
2023/04/06 03:21:42;;;;;;;11.77;7.30;;;3.20;99.90;;;;;;4921001;29;20042;-54
2023/04/06 03:24:08;;;;;;;12.88;8.02;;;3.20;99.90;;;;;;4917982;29;20068;-52
2023/04/06 03:26:34;;;;;;;12.73;8.45;;;3.20;99.90;;;;;;4913732;29;20048;-53
2023/04/06 03:29:00;;;;;;;13.57;8.02;;;3.10;99.90;;;;;;4918077;29;20111;-55
2023/04/06 03:31:26;;;;;;;11.48;8.23;;;3.10;99.90;;;;;;4917672;29;20047;-54
2023/04/06 03:33:52;;;;;;;10.98;8.10;;;3.10;99.90;;;;;;4918017;29;20051;-55
2023/04/06 03:36:18;;;;;;;10.57;8.10;;;3.10;99.90;;;;;;4915425;28;20102;-54
2023/04/06 03:38:44;;;;;;;13.57;7.90;;;3.10;99.90;;;;;;4917987;29;20056;-52
2023/04/06 03:41:10;;;;;;;11.65;7.95;;;3.00;99.90;;;;;;4914546;29;20071;-56
2023/04/06 03:43:36;;;;;;;11.48;7.40;;;3.00;99.90;;;;;;4916125;29;20040;-55
2023/04/06 03:46:01;;;;;;;9.05;7.50;;;3.00;99.90;;;;;;4918742;29;20643;-56
2023/04/06 03:48:27;;;;;;;17.67;8.32;;;3.00;99.90;;;;;;4920323;29;20040;-56
2023/04/06 03:50:53;;;;;;;14.70;8.05;;;3.00;99.90;;;;;;4912036;29;20090;-56
2023/04/06 03:53:19;;;;;;;12.95;7.75;;;3.00;99.90;;;;;;4919147;29;20549;-54
2023/04/06 03:55:44;;;;;;;15.63;8.10;;;2.90;99.90;;;;;;4915985;29;20106;-52
2023/04/06 03:58:10;;;;;;;13.15;8.48;;;2.90;99.90;;;;;;4915013;29;20055;-56
2023/04/06 04:00:36;;;;;;;13.95;8.10;;;2.90;99.90;;;;;;4916224;29;20091;-56
2023/04/06 04:03:02;;;;;;;11.23;8.18;;;2.90;99.90;;;;;;4909229;29;20066;-55
2023/04/06 04:05:28;;;;;;;12.68;8.70;;;2.90;99.90;;;;;;4914881;29;20048;-56
2023/04/06 04:07:55;;;;;;;11.98;7.88;;;2.90;99.90;;;;;;4917480;29;20048;-54
2023/04/06 04:10:20;;;;;;;10.85;8.10;;;2.80;99.90;;;;;;4917421;29;20043;-54
2023/04/06 04:12:46;;;;;;;12.45;8.20;;;2.80;99.90;;;;;;4918157;29;20386;-55
2023/04/06 04:15:12;;;;;;;13.48;8.50;;;2.80;99.90;;;;;;4901144;29;20047;-52
2023/04/06 04:17:38;;;;;;;11.57;8.35;;;2.80;99.90;;;;;;4917786;29;20047;-51
2023/04/06 04:20:04;;;;;;;11.73;8.60;;;2.80;99.90;;;;;;4917290;29;20121;-52
2023/04/06 04:22:30;;;;;;;12.68;8.02;;;2.80;99.90;;;;;;4919025;29;20060;-55
2023/04/06 04:24:56;;;;;;;12.32;8.27;;;2.80;99.90;;;;;;4889139;29;20074;-51
2023/04/06 04:27:21;;;;;;;14.13;8.70;;;2.70;99.90;;;;;;4901625;29;20072;-54
2023/04/06 04:29:47;;;;;;;12.85;8.25;;;2.70;99.90;;;;;;4899102;29;20040;-53
2023/04/06 04:32:13;;;;;;;12.50;8.60;;;2.70;99.90;;;;;;4916183;29;20459;-53
2023/04/06 04:34:41;;;;;;;17.92;8.30;;;2.70;99.90;;;;;;4918457;29;20052;-54
2023/04/06 04:37:07;;;;;;;11.85;8.40;;;2.70;99.90;;;;;;4917166;29;20051;-55
2023/04/06 04:39:33;;;;;;;10.63;7.95;;;2.60;99.90;;;;;;4915901;29;20055;-52
2023/04/06 04:41:59;;;;;;;13.00;8.93;;;2.60;99.90;;;;;;4916532;29;20469;-52
2023/04/06 04:44:25;;;;;;;12.70;8.60;;;2.60;99.90;;;;;;4915331;29;20044;-52
2023/04/06 04:46:50;;;;;;;12.45;8.35;;;2.60;99.90;;;;;;4914591;29;20044;-55
2023/04/06 04:49:16;;;;;;;12.82;8.82;;;2.60;99.90;;;;;;4900440;29;20379;-54
2023/04/06 04:51:42;;;;;;;13.90;8.77;;;2.60;99.90;;;;;;4916320;29;20435;-56
2023/04/06 04:54:07;;;;;;;11.20;7.88;;;2.50;99.90;;;;;;4915657;29;20039;-54
2023/04/06 04:56:33;;;;;;;15.60;8.75;;;2.50;99.90;;;;;;4892492;29;20103;-55
2023/04/06 04:58:59;;;;;;;11.70;8.60;;;2.50;99.90;;;;;;4915735;29;20123;-54
2023/04/06 05:01:25;;;;;;;16.52;9.07;;;2.50;99.90;;;;;;4911533;29;20739;-55
2023/04/06 05:03:51;;;;;;;11.20;8.98;;;2.50;99.90;;;;;;4897629;29;20044;-55
2023/04/06 05:06:17;;;;;;;15.48;8.60;;;2.50;99.90;;;;;;4911710;29;20426;-56
2023/04/06 05:08:43;;;;;;;11.23;8.43;;;2.40;99.90;;;;;;4914045;29;20374;-54
2023/04/06 05:11:09;;;;;;;12.80;8.20;;;2.40;99.90;;;;;;4895496;29;20044;-53
2023/04/06 05:13:35;;;;;;;12.20;8.95;;;2.40;99.90;;;;;;4913051;29;20052;-53
2023/04/06 05:16:01;;;;;;;13.52;8.77;;;2.40;99.90;;;;;;4910868;29;20051;-53
2023/04/06 05:18:27;;;;;;;11.55;8.70;;;2.40;99.90;;;;;;4915059;29;20509;-55
2023/04/06 05:20:53;;;;;;;15.98;8.98;;;2.40;99.90;;;;;;4894569;29;20458;-53
2023/04/06 05:23:19;;;;;;;12.57;9.05;;;2.40;99.90;;;;;;4899531;29;20043;-52
2023/04/06 05:25:45;;;;;;;11.52;9.18;;;2.40;99.90;;;;;;4876920;29;20039;-53
2023/04/06 05:28:13;;;;;;;21.75;9.13;;;2.40;99.90;;;;;;4913387;29;20515;-55
2023/04/06 05:30:40;;;;;;;15.45;9.38;;;2.40;99.90;;;;;;4908924;29;20054;-53
2023/04/06 05:33:05;;;;;;;16.05;9.30;;;2.40;99.90;;;;;;4907617;29;20051;-55
2023/04/06 05:35:31;;;;;;;13.65;8.85;;;2.40;99.90;;;;;;4910353;29;20390;-53
2023/04/06 05:37:57;;;;;;;14.65;8.90;;;2.40;99.90;;;;;;4903302;29;20164;-54
2023/04/06 05:40:23;;;;;;;16.85;9.10;;;2.40;99.90;;;;;;4894498;29;20126;-52
2023/04/06 05:42:49;;;;;;;11.32;7.95;;;2.40;99.90;;;;;;4896372;29;20083;-53
2023/04/06 05:45:16;;;;;;;12.32;8.93;;;2.40;99.90;;;;;;4896671;29;20076;-52
2023/04/06 05:47:45;;;;;;;14.13;8.60;;;2.50;99.90;;;;;;4910847;29;20490;-55
2023/04/06 05:50:12;;;;;;;11.50;8.43;;;2.50;99.90;;;;;;4900788;29;20526;-54
2023/04/06 05:52:38;;;;;;;20.05;9.18;;;2.50;99.90;;;;;;4894039;29;20047;-55
2023/04/06 05:55:04;;;;;;;17.98;9.15;;;2.50;99.90;;;;;;4914035;29;20043;-51
2023/04/06 05:57:30;;;;;;;14.82;9.25;;;2.50;99.90;;;;;;4904836;29;20055;-55
2023/04/06 05:59:56;;;;;;;12.65;8.88;;;2.50;99.90;;;;;;4900450;29;20062;-53
2023/04/06 06:02:22;;;;;;;10.65;7.93;;;2.60;99.90;;;;;;4888139;29;20070;-51
2023/04/06 06:04:48;;;;;;;19.80;9.25;;;2.60;99.90;;;;;;4904826;29;20043;-55
2023/04/06 06:07:14;;;;;;;14.32;8.88;;;2.60;99.90;;;;;;4907136;29;20047;-55
2023/04/06 06:09:40;;;;;;;12.32;9.07;;;2.60;99.90;;;;;;4900719;29;20059;-56
2023/04/06 06:12:07;;;;;;;11.77;8.98;;;2.70;99.90;;;;;;4904754;29;20515;-54
2023/04/06 06:14:33;;;;;;;14.63;8.55;;;2.70;99.90;;;;;;4909284;29;20522;-57
2023/04/06 06:16:58;;;;;;;15.63;9.70;;;2.70;99.90;;;;;;4919611;29;20039;-55
2023/04/06 06:19:24;;;;;;;14.55;8.88;;;2.70;99.90;;;;;;4920082;29;20075;-54
2023/04/06 06:21:50;;;;;;;13.02;8.82;;;2.80;99.90;;;;;;4920573;29;20052;-55
2023/04/06 06:24:15;;;;;;;12.38;8.90;;;2.80;99.90;;;;;;4920348;29;20046;-55
2023/04/06 06:26:42;;;;;;;13.50;8.95;;;2.90;99.90;;;;;;4916375;29;20076;-52
2023/04/06 06:29:08;;;;;;;13.70;9.15;;;2.90;99.90;;;;;;4920378;29;20598;-56
2023/04/06 06:31:35;;;;;;;16.25;9.45;;;2.90;99.90;;;;;;4919901;29;20099;-55
2023/04/06 06:34:01;;;;;;;20.00;9.00;;;3.00;99.90;;;;;;4919658;29;20096;-54
2023/04/06 06:36:27;;;;;;;12.07;9.02;;;3.00;99.90;;;;;;4920564;29;20533;-54
2023/04/06 06:38:53;;;;;;;13.35;8.93;;;3.10;99.90;;;;;;4919713;29;20060;-56
2023/04/06 06:41:19;;;;;;;13.20;8.95;;;3.10;99.90;;;;;;4917305;29;20047;-57
2023/04/06 06:43:45;;;;;;;12.57;9.25;;;3.10;99.90;;;;;;4923392;29;20628;-55
2023/04/06 06:46:11;;;;;;;13.90;9.18;;;3.20;99.90;;;;;;4918910;29;20048;-57
2023/04/06 06:48:36;;;;;;;11.60;8.40;;;3.30;99.90;;;;;;4909275;29;20443;-56
2023/04/06 06:51:02;;;;;;;12.95;8.85;;;3.30;99.90;;;;;;4920394;29;20089;-56
2023/04/06 06:53:28;;;;;;;18.17;8.77;;;3.40;99.90;;;;;;4921017;29;20099;-55
2023/04/06 06:55:54;;;;;;;17.90;9.18;;;3.50;99.90;;;;;;4916055;29;20083;-55
2023/04/06 06:58:20;;;;;;;13.15;9.32;;;3.50;99.90;;;;;;4914856;29;20495;-55
2023/04/06 07:00:46;;;;;;;11.65;8.77;;;3.60;99.90;;;;;;4895112;29;20059;-54
2023/04/06 07:03:12;;;;;;;17.48;9.63;;;3.60;99.90;;;;;;4916981;29;20509;-54
2023/04/06 07:05:38;;;;;;;15.25;8.90;;;3.70;99.90;;;;;;4915933;29;20036;-54
2023/04/06 07:08:04;;;;;;;14.38;9.20;;;3.70;99.80;;;;;;4919465;29;20100;-57
2023/04/06 07:10:30;;;;;;;15.23;9.45;;;3.80;99.80;;;;;;4921535;29;20051;-56
2023/04/06 07:12:56;;;;;;;14.63;9.30;;;3.80;99.80;;;;;;4901740;29;20321;-57
2023/04/06 07:15:21;;;;;;;14.65;8.90;;;3.90;99.80;;;;;;4918313;29;20051;-57
2023/04/06 07:17:47;;;;;;;15.80;9.38;;;4.00;99.80;;;;;;4917472;29;20510;-56
2023/04/06 07:20:13;;;;;;;17.42;9.85;;;4.00;99.80;;;;;;4897187;29;20135;-56
2023/04/06 07:22:40;;;;;;;15.43;9.85;;;4.10;99.70;;;;;;4919070;29;20035;-55
2023/04/06 07:25:06;;;;;;;15.18;8.77;;;4.20;99.70;;;;;;4918599;29;20047;-55
2023/04/06 07:27:32;;;;;;;13.38;9.20;;;4.30;99.50;;;;;;4917042;29;20054;-56
2023/04/06 07:29:57;;;;;;;14.80;9.50;;;4.40;99.40;;;;;;4915387;29;20495;-56
2023/04/06 07:32:23;;;;;;;15.75;8.88;;;4.50;99.30;;;;;;4918480;29;20067;-56
2023/04/06 07:34:49;;;;;;;13.95;9.68;;;4.50;99.10;;;;;;4915195;29;20572;-54
2023/04/06 07:37:15;;;;;;;13.68;8.90;;;4.60;98.90;;;;;;4921011;29;20139;-57
2023/04/06 07:39:41;;;;;;;17.10;9.75;;;4.80;98.70;;;;;;4919792;29;20070;-57
2023/04/06 07:42:06;;;;;;;27.63;10.25;;;4.90;98.60;;;;;;4917865;29;20051;-57
2023/04/06 07:44:32;;;;;;;18.02;9.02;;;5.10;98.50;;;;;;4915567;29;20056;-53
2023/04/06 07:46:58;;;;;;;15.23;9.50;;;5.20;98.20;;;;;;4917244;29;20046;-57
2023/04/06 07:49:23;;;;;;;13.80;9.18;;;5.40;97.90;;;;;;4920078;29;20167;-56
2023/04/06 07:51:49;;;;;;;12.48;9.07;;;5.50;97.70;;;;;;4919371;29;20055;-55
2023/04/06 07:54:15;;;;;;;14.00;9.60;;;5.70;97.40;;;;;;4915200;29;20054;-57
2023/04/06 07:56:41;;;;;;;15.27;9.55;;;5.80;97.30;;;;;;4915253;29;20138;-56
2023/04/06 07:59:06;;;;;;;12.90;9.50;;;6.00;97.30;;;;;;4902555;29;20047;-56
2023/04/06 08:01:32;;;;;;;16.38;9.80;;;6.10;97.10;;;;;;4901020;29;20103;-56
2023/04/06 08:03:58;;;;;;;18.63;10.07;;;6.30;96.70;;;;;;4920526;29;20864;-56
2023/04/06 08:06:25;;;;;;;16.23;10.07;;;6.40;96.40;;;;;;4916124;29;20402;-57
2023/04/06 08:08:50;;;;;;;14.43;9.88;;;6.50;96.10;;;;;;4918175;29;20083;-52
2023/04/06 08:11:16;;;;;;;15.45;9.82;;;6.70;95.90;;;;;;4915736;29;20052;-55
2023/04/06 08:13:42;;;;;;;17.23;10.55;;;6.80;95.70;;;;;;4919206;29;20048;-54
2023/04/06 08:16:08;;;;;;;17.10;9.95;;;6.90;95.70;;;;;;4916038;29;20107;-53
2023/04/06 08:18:33;;;;;;;14.65;9.52;;;7.10;95.60;;;;;;4919336;29;20044;-55
2023/04/06 08:20:59;;;;;;;13.15;9.07;;;7.20;95.30;;;;;;4918282;29;20056;-56
2023/04/06 08:23:25;;;;;;;13.77;9.85;;;7.40;95.00;;;;;;4898611;29;20051;-56
2023/04/06 08:25:54;;;;;;;16.83;9.80;;;7.50;94.60;;;;;;4917823;29;20048;-56
2023/04/06 08:28:20;;;;;;;13.90;9.65;;;7.70;93.90;;;;;;4920531;29;20052;-56
2023/04/06 08:30:46;;;;;;;15.02;9.23;;;7.80;93.70;;;;;;4918965;29;20078;-55
2023/04/06 08:33:12;;;;;;;15.52;10.30;;;7.90;93.00;;;;;;4918760;29;20076;-56
2023/04/06 08:35:38;;;;;;;19.73;10.32;;;8.10;92.90;;;;;;4917022;29;20098;-55
2023/04/06 08:38:04;;;;;;;15.90;9.45;;;8.20;92.30;;;;;;4906325;29;20060;-57
2023/04/06 08:40:35;;;;;;;13.48;9.10;;;8.30;91.20;;;;;;4920054;29;20056;-55
2023/04/06 08:43:08;;;;;;;14.10;9.65;;;8.40;90.40;;;;;;4917714;29;20190;-56
2023/04/06 08:45:34;;;;;;;13.38;9.23;;;8.60;90.10;;;;;;4914414;29;20040;-56
2023/04/06 08:48:03;;;;;;;14.88;9.95;;;8.70;90.00;;;;;;4917432;29;20430;-57
2023/04/06 08:50:33;;;;;;;17.63;10.35;;;8.80;90.10;;;;;;4915714;29;20083;-55
2023/04/06 08:53:01;;;;;;;13.75;8.95;;;9.00;89.70;;;;;;4919256;29;20075;-55
2023/04/06 08:55:27;;;;;;;13.60;9.43;;;9.20;88.40;;;;;;4917250;29;20039;-55
2023/04/06 08:57:54;;;;;;;12.05;8.90;;;9.40;87.00;;;;;;4916801;29;20131;-53
2023/04/06 09:00:21;;;;;;;17.25;9.20;;;9.50;84.70;;;;;;4917448;29;20143;-56
2023/04/06 09:02:49;;;;;;;12.68;8.80;;;9.60;83.60;;;;;;4918582;29;20054;-57
2023/04/06 09:05:16;;;;;;;12.02;8.63;;;9.80;84.00;;;;;;4915722;29;20044;-58
2023/04/06 09:07:42;;;;;;;14.73;8.90;;;9.90;82.20;;;;;;4920776;29;20542;-56
2023/04/06 09:10:08;;;;;;;16.33;9.48;;;10.10;80.10;;;;;;4915503;29;20048;-54
2023/04/06 09:12:35;;;;;;;12.50;9.07;;;10.20;80.40;;;;;;4907536;29;20044;-56
2023/04/06 09:15:01;;;;;;;13.70;9.02;;;10.30;78.70;;;;;;4909704;29;20127;-55
2023/04/06 09:17:30;;;;;;;12.25;9.00;;;10.50;78.30;;;;;;4917306;29;20044;-57
2023/04/06 09:19:56;;;;;;;17.35;9.07;;;10.70;77.80;;;;;;4902016;29;20058;-55
2023/04/06 09:22:24;;;;;;;14.98;9.48;;;10.90;77.90;;;;;;4919982;29;20079;-57
2023/04/06 09:24:52;;;;;;;12.05;9.40;;;11.10;76.80;;;;;;4916038;29;20052;-56
2023/04/06 09:27:33;;;;;;;14.27;9.93;;;11.20;76.80;;;;;;4917720;29;20040;-56
2023/04/06 09:30:05;;;;;;;17.20;9.55;;;11.30;76.70;;;;;;4913945;29;20127;-53
2023/04/06 09:32:31;;;;;;;13.63;9.80;;;11.40;76.30;;;;;;4912728;29;20099;-55
2023/04/06 09:35:07;;;;;;;13.50;9.70;;;11.40;75.70;;;;;;4918393;29;20048;-54
2023/04/06 09:37:33;;;;;;;15.38;10.13;;;11.50;76.00;;;;;;4920371;29;20067;-56
2023/04/06 09:40:07;;;;;;;13.50;9.75;;;11.40;74.90;;;;;;4916848;29;20059;-55
2023/04/06 09:42:34;;;;;;;14.25;10.23;;;11.40;73.50;;;;;;4916965;29;20095;-56
2023/04/06 09:45:04;;;;;;;15.20;10.25;;;11.30;74.10;;;;;;4904604;29;20040;-57
2023/04/06 09:47:32;;;;;;;16.08;10.50;;;11.30;73.40;;;;;;4917696;29;20044;-57
2023/04/06 09:49:59;;;;;;;13.20;9.50;;;11.30;74.50;;;;;;4919081;29;20127;-55
2023/04/06 09:52:32;;;;;;;15.93;9.65;;;11.30;74.70;;;;;;4921544;29;20040;-57
2023/04/06 09:55:05;;;;;;;14.02;10.32;;;11.40;75.10;;;;;;4921350;29;20560;-54
2023/04/06 09:58:00;;;;;;;17.27;10.70;;;11.40;74.00;;;;;;4920415;29;20047;-55
2023/04/06 10:00:27;;;;;;;16.70;11.07;;;11.40;73.80;;;;;;4908280;29;20135;-57
2023/04/06 10:02:59;;;;;;;17.58;11.40;;;11.40;73.60;;;;;;4918787;29;20521;-57
2023/04/06 10:05:44;;;;;;;15.75;11.07;;;11.40;73.10;;;;;;4922356;29;20119;-57
2023/04/06 10:08:11;;;;;;;15.80;11.75;;;11.40;72.60;;;;;;4923482;29;20048;-57
2023/04/06 10:10:38;;;;;;;16.42;11.20;;;11.40;72.30;;;;;;4920425;29;20036;-57
2023/04/06 10:13:10;;;;;;;24.50;11.65;;;11.50;72.40;;;;;;4886409;29;20106;-55
2023/04/06 10:15:37;;;;;;;20.30;11.90;;;11.50;70.70;;;;;;4921566;29;20104;-55
2023/04/06 10:18:04;;;;;;;19.80;12.32;;;11.50;71.10;;;;;;4922024;29;20048;-56
2023/04/06 10:20:45;;;;;;;17.80;11.55;;;11.60;71.00;;;;;;4918571;29;20048;-54
2023/04/06 10:23:36;;;;;;;16.00;11.45;;;11.70;71.20;;;;;;4921652;29;20046;-55
2023/04/06 10:26:03;;;;;;;18.40;12.80;;;11.90;71.20;;;;;;4921875;29;20079;-55
2023/04/06 10:28:35;;;;;;;17.30;11.77;;;11.90;69.60;;;;;;4919317;29;20043;-54
2023/04/06 10:31:04;;;;;;;21.33;12.23;;;12.00;69.60;;;;;;4916260;29;20174;-56
2023/04/06 10:33:30;;;;;;;17.50;11.73;;;12.00;69.30;;;;;;4917826;29;20394;-56
2023/04/06 10:35:56;;;;;;;18.35;12.90;;;12.10;69.60;;;;;;4913506;29;20110;-55
2023/04/06 10:38:34;;;;;;;21.40;13.68;;;12.20;68.70;;;;;;4916983;29;20059;-56
2023/04/06 10:41:07;;;;;;;23.80;14.70;;;12.30;67.50;;;;;;4923131;29;20402;-57
2023/04/06 10:43:40;;;;;;;24.77;14.57;;;12.40;66.90;;;;;;4918221;29;20103;-57
2023/04/06 10:46:08;;;;;;;20.45;14.40;;;12.50;65.60;;;;;;4908523;29;20511;-57
2023/04/06 10:48:41;;;;;;;24.02;14.05;;;12.60;65.60;;;;;;4913103;29;20143;-57
2023/04/06 10:51:15;;;;;;;19.17;13.80;;;12.60;64.70;;;;;;4916686;29;20131;-57
2023/04/06 10:53:48;;;;;;;22.70;15.20;;;12.60;65.10;;;;;;4908391;29;20960;-57
2023/04/06 10:56:15;;;;;;;22.58;15.63;;;12.60;65.20;;;;;;4915466;29;20097;-57
2023/04/06 10:58:53;;;;;;;22.65;15.77;;;12.70;65.60;;;;;;4909530;29;20044;-57
2023/04/06 11:01:20;;;;;;;25.00;16.33;;;12.70;65.40;;;;;;4915417;29;20447;-57
2023/04/06 11:03:54;;;;;;;28.08;15.88;;;12.80;66.00;;;;;;4892695;29;20043;-56
2023/04/06 11:06:30;;;;;;;27.27;16.70;;;12.80;65.60;;;;;;4921005;29;20197;-54
2023/04/06 11:08:57;;;;;;;25.92;17.30;;;12.80;65.60;;;;;;4921297;29;20039;-57
2023/04/06 11:11:26;;;;;;;30.50;20.48;;;12.90;65.90;;;;;;4918720;29;20543;-57
2023/04/06 11:13:56;;;;;;;31.10;20.40;;;12.90;65.30;;;;;;4908643;29;20123;-57
2023/04/06 11:16:27;;;;;;;33.13;21.88;;;13.00;65.10;;;;;;4903700;29;20040;-57
2023/04/06 11:18:55;;;;;;;39.42;21.98;;;13.10;63.90;;;;;;4915332;29;20047;-55
2023/04/06 11:21:39;;;;;;;33.70;19.90;;;13.30;64.30;;;;;;4902468;29;20051;-56
2023/04/06 11:24:19;;;;;;;33.20;21.35;;;13.40;64.20;;;;;;4918621;29;20039;-57
2023/04/06 11:26:51;;;;;;;36.38;22.42;;;13.40;63.10;;;;;;4916619;29;20044;-57
2023/04/06 11:29:21;;;;;;;34.53;22.65;;;13.50;63.20;;;;;;4916882;29;20406;-56
2023/04/06 11:31:52;;;;;;;33.88;22.38;;;13.50;61.90;;;;;;4916227;29;20426;-58
2023/04/06 11:34:19;;;;;;;36.20;23.27;;;13.40;60.80;;;;;;4921215;29;20154;-57
2023/04/06 11:36:47;;;;;;;37.17;25.00;;;13.50;61.30;;;;;;4918895;29;20186;-57
2023/04/06 11:39:18;;;;;;;33.90;23.23;;;13.70;61.20;;;;;;4912844;29;20051;-55
2023/04/06 11:41:51;;;;;;;35.08;22.88;;;13.80;61.50;;;;;;4897097;29;20044;-55
2023/04/06 11:44:36;;;;;;;31.88;22.10;;;13.80;60.90;;;;;;4901279;29;20455;-57
2023/04/06 11:47:03;;;;;;;31.65;21.33;;;13.90;59.60;;;;;;4902966;29;20044;-57
2023/04/06 11:49:33;;;;;;;31.10;21.13;;;13.90;59.40;;;;;;4908594;29;20220;-57
2023/04/06 11:52:00;;;;;;;30.48;20.95;;;14.00;59.40;;;;;;4893102;29;20138;-58
2023/04/06 11:54:37;;;;;;;29.83;21.60;;;14.00;59.70;;;;;;4910147;29;20131;-57
2023/04/06 11:57:04;;;;;;;31.35;20.45;;;14.00;59.70;;;;;;4911426;29;20060;-57
2023/04/06 11:59:31;;;;;;;32.15;20.80;;;14.10;59.30;;;;;;4914982;29;20453;-57
2023/04/06 12:01:58;;;;;;;28.88;20.58;;;14.00;59.00;;;;;;4909468;29;20086;-57
2023/04/06 12:04:24;;;;;;;31.83;20.88;;;14.00;59.20;;;;;;4912893;29;20102;-57
2023/04/06 12:06:50;;;;;;;30.08;20.77;;;14.10;59.60;;;;;;4913977;29;20136;-55
2023/04/06 12:09:19;;;;;;;32.20;19.95;;;14.10;59.00;;;;;;4912093;29;20051;-56
2023/04/06 12:11:45;;;;;;;29.05;21.17;;;14.00;58.40;;;;;;4913007;29;20040;-57
2023/04/06 12:14:11;;;;;;;29.13;20.23;;;13.90;59.00;;;;;;4900858;29;20462;-57
2023/04/06 12:16:37;;;;;;;31.02;20.85;;;13.90;58.80;;;;;;4906605;29;20044;-57
2023/04/06 12:19:03;;;;;;;33.95;21.25;;;13.80;58.70;;;;;;4901204;29;20511;-56
2023/04/06 12:21:30;;;;;;;28.58;20.55;;;13.80;58.50;;;;;;4901822;29;20122;-57
2023/04/06 12:24:02;;;;;;;30.70;21.25;;;13.70;59.20;;;;;;4904519;29;20048;-55
2023/04/06 12:26:29;;;;;;;29.08;20.35;;;13.70;58.80;;;;;;4879557;29;20135;-54
2023/04/06 12:28:54;;;;;;;30.17;21.67;;;13.60;58.50;;;;;;4893894;29;20051;-58
2023/04/06 12:31:22;;;;;;;34.47;20.65;;;13.50;58.40;;;;;;4902344;29;20158;-56
2023/04/06 12:33:49;;;;;;;36.92;21.55;;;13.40;58.80;;;;;;4887779;29;20604;-58
2023/04/06 12:36:20;;;;;;;33.97;21.98;;;13.40;58.60;;;;;;4903309;29;20139;-56
2023/04/06 12:38:53;;;;;;;29.77;21.42;;;13.30;58.10;;;;;;4907229;29;20047;-56
2023/04/06 12:41:19;;;;;;;34.67;21.50;;;13.30;58.10;;;;;;4905070;29;20060;-56